sensor_id;sensor_type;location;lat;lon;timestamp;P1;durP1;ratioP1;P2;durP2;ratioP2
19863;SDS011;10094;48.820;9.226;2023-02-24T00:01:11;25.80;;;17.52;;
19863;SDS011;10094;48.820;9.226;2023-02-24T00:07:59;23.73;;;16.92;;
19863;SDS011;10094;48.820;9.226;2023-02-24T00:14:42;23.23;;;16.02;;
19863;SDS011;10094;48.820;9.226;2023-02-24T00:21:26;27.35;;;19.20;;
19863;SDS011;10094;48.820;9.226;2023-02-24T00:28:09;30.95;;;21.48;;
19863;SDS011;10094;48.820;9.226;2023-02-24T00:34:56;36.22;;;22.45;;
19863;SDS011;10094;48.820;9.226;2023-02-24T00:41:40;32.42;;;22.65;;
19863;SDS011;10094;48.820;9.226;2023-02-24T00:48:24;37.42;;;22.75;;
19863;SDS011;10094;48.820;9.226;2023-02-24T00:55:10;34.30;;;22.83;;
19863;SDS011;10094;48.820;9.226;2023-02-24T01:01:55;34.17;;;23.50;;
19863;SDS011;10094;48.820;9.226;2023-02-24T01:08:38;36.20;;;23.95;;
19863;SDS011;10094;48.820;9.226;2023-02-24T01:15:23;38.92;;;24.67;;
19863;SDS011;10094;48.820;9.226;2023-02-24T01:22:07;35.97;;;24.00;;
19863;SDS011;10094;48.820;9.226;2023-02-24T01:28:50;36.30;;;23.63;;
19863;SDS011;10094;48.820;9.226;2023-02-24T01:35:34;32.60;;;21.95;;
19863;SDS011;10094;48.820;9.226;2023-02-24T01:42:18;28.92;;;22.05;;
19863;SDS011;10094;48.820;9.226;2023-02-24T01:49:03;27.73;;;19.63;;
19863;SDS011;10094;48.820;9.226;2023-02-24T01:55:49;29.50;;;20.95;;
19863;SDS011;10094;48.820;9.226;2023-02-24T02:02:32;28.75;;;21.05;;
19863;SDS011;10094;48.820;9.226;2023-02-24T02:09:15;31.42;;;21.75;;
19863;SDS011;10094;48.820;9.226;2023-02-24T02:30:02;29.15;;;22.17;;
19863;SDS011;10094;48.820;9.226;2023-02-24T02:37:08;32.22;;;21.90;;
19863;SDS011;10094;48.820;9.226;2023-02-24T02:50:54;34.78;;;22.80;;
19863;SDS011;10094;48.820;9.226;2023-02-24T02:57:45;36.50;;;23.77;;
19863;SDS011;10094;48.820;9.226;2023-02-24T03:04:29;35.45;;;24.77;;
19863;SDS011;10094;48.820;9.226;2023-02-24T03:11:14;35.50;;;23.95;;
19863;SDS011;10094;48.820;9.226;2023-02-24T03:18:04;34.53;;;23.48;;
19863;SDS011;10094;48.820;9.226;2023-02-24T03:24:53;33.20;;;22.10;;
19863;SDS011;10094;48.820;9.226;2023-02-24T03:38:54;35.20;;;23.65;;
19863;SDS011;10094;48.820;9.226;2023-02-24T03:45:40;35.55;;;23.35;;
19863;SDS011;10094;48.820;9.226;2023-02-24T03:59:40;35.30;;;24.10;;
19863;SDS011;10094;48.820;9.226;2023-02-24T04:07:13;32.70;;;22.42;;
19863;SDS011;10094;48.820;9.226;2023-02-24T04:14:05;40.42;;;26.17;;
19863;SDS011;10094;48.820;9.226;2023-02-24T04:20:52;39.65;;;26.00;;
19863;SDS011;10094;48.820;9.226;2023-02-24T04:27:40;43.20;;;28.15;;
19863;SDS011;10094;48.820;9.226;2023-02-24T04:34:29;41.05;;;26.73;;
19863;SDS011;10094;48.820;9.226;2023-02-24T04:41:14;40.88;;;25.92;;
19863;SDS011;10094;48.820;9.226;2023-02-24T04:48:04;44.40;;;28.33;;
19863;SDS011;10094;48.820;9.226;2023-02-24T04:54:53;50.08;;;30.33;;
19863;SDS011;10094;48.820;9.226;2023-02-24T05:01:36;47.80;;;31.20;;
19863;SDS011;10094;48.820;9.226;2023-02-24T05:08:23;56.38;;;34.25;;
19863;SDS011;10094;48.820;9.226;2023-02-24T05:15:07;54.60;;;32.50;;
19863;SDS011;10094;48.820;9.226;2023-02-24T05:21:49;50.65;;;32.42;;
19863;SDS011;10094;48.820;9.226;2023-02-24T05:28:32;50.75;;;32.65;;
19863;SDS011;10094;48.820;9.226;2023-02-24T05:35:16;48.72;;;30.13;;
19863;SDS011;10094;48.820;9.226;2023-02-24T05:41:58;61.33;;;34.00;;
19863;SDS011;10094;48.820;9.226;2023-02-24T05:48:49;51.47;;;31.75;;
19863;SDS011;10094;48.820;9.226;2023-02-24T05:55:34;53.75;;;33.50;;
19863;SDS011;10094;48.820;9.226;2023-02-24T06:02:17;48.53;;;31.88;;
19863;SDS011;10094;48.820;9.226;2023-02-24T06:09:12;53.72;;;32.30;;
19863;SDS011;10094;48.820;9.226;2023-02-24T06:15:55;57.72;;;33.63;;
19863;SDS011;10094;48.820;9.226;2023-02-24T06:22:37;58.03;;;33.40;;
19863;SDS011;10094;48.820;9.226;2023-02-24T06:29:23;59.67;;;33.75;;
19863;SDS011;10094;48.820;9.226;2023-02-24T06:36:10;59.90;;;35.08;;
19863;SDS011;10094;48.820;9.226;2023-02-24T06:42:55;64.88;;;36.85;;
19863;SDS011;10094;48.820;9.226;2023-02-24T06:49:37;78.40;;;38.20;;
19863;SDS011;10094;48.820;9.226;2023-02-24T06:56:20;65.80;;;37.00;;
19863;SDS011;10094;48.820;9.226;2023-02-24T07:03:05;67.78;;;36.90;;
19863;SDS011;10094;48.820;9.226;2023-02-24T07:09:57;72.30;;;37.22;;
19863;SDS011;10094;48.820;9.226;2023-02-24T07:16:40;72.45;;;37.97;;
19863;SDS011;10094;48.820;9.226;2023-02-24T07:23:26;74.72;;;39.22;;
19863;SDS011;10094;48.820;9.226;2023-02-24T07:30:10;71.32;;;36.40;;
19863;SDS011;10094;48.820;9.226;2023-02-24T07:36:53;69.35;;;35.88;;
19863;SDS011;10094;48.820;9.226;2023-02-24T07:43:37;66.68;;;36.30;;
19863;SDS011;10094;48.820;9.226;2023-02-24T07:50:20;67.65;;;35.72;;
19863;SDS011;10094;48.820;9.226;2023-02-24T07:57:04;74.68;;;35.95;;
19863;SDS011;10094;48.820;9.226;2023-02-24T08:03:49;69.13;;;35.40;;
19863;SDS011;10094;48.820;9.226;2023-02-24T08:10:36;62.88;;;34.13;;
19863;SDS011;10094;48.820;9.226;2023-02-24T08:17:22;62.85;;;33.55;;
19863;SDS011;10094;48.820;9.226;2023-02-24T08:24:12;65.15;;;34.17;;
19863;SDS011;10094;48.820;9.226;2023-02-24T08:31:01;60.25;;;34.20;;
19863;SDS011;10094;48.820;9.226;2023-02-24T08:37:49;66.63;;;34.97;;
19863;SDS011;10094;48.820;9.226;2023-02-24T08:44:33;67.25;;;33.80;;
19863;SDS011;10094;48.820;9.226;2023-02-24T08:51:19;58.85;;;32.05;;
19863;SDS011;10094;48.820;9.226;2023-02-24T08:58:12;58.40;;;33.10;;
19863;SDS011;10094;48.820;9.226;2023-02-24T09:04:59;54.53;;;29.23;;
19863;SDS011;10094;48.820;9.226;2023-02-24T09:11:56;59.30;;;32.50;;
19863;SDS011;10094;48.820;9.226;2023-02-24T09:18:40;53.42;;;30.70;;
19863;SDS011;10094;48.820;9.226;2023-02-24T09:25:24;52.83;;;30.67;;
19863;SDS011;10094;48.820;9.226;2023-02-24T09:32:21;51.22;;;29.75;;
19863;SDS011;10094;48.820;9.226;2023-02-24T09:39:04;56.58;;;29.33;;
19863;SDS011;10094;48.820;9.226;2023-02-24T09:45:49;51.25;;;30.45;;
19863;SDS011;10094;48.820;9.226;2023-02-24T09:52:39;50.63;;;28.75;;
19863;SDS011;10094;48.820;9.226;2023-02-24T09:59:25;52.60;;;25.48;;
19863;SDS011;10094;48.820;9.226;2023-02-24T10:06:45;50.70;;;25.63;;
19863;SDS011;10094;48.820;9.226;2023-02-24T10:13:29;39.90;;;21.13;;
19863;SDS011;10094;48.820;9.226;2023-02-24T10:20:14;34.58;;;17.85;;
19863;SDS011;10094;48.820;9.226;2023-02-24T10:34:07;33.80;;;15.43;;
19863;SDS011;10094;48.820;9.226;2023-02-24T10:40:53;31.08;;;18.85;;
19863;SDS011;10094;48.820;9.226;2023-02-24T10:47:37;40.53;;;22.45;;
19863;SDS011;10094;48.820;9.226;2023-02-24T10:54:26;45.05;;;23.65;;
19863;SDS011;10094;48.820;9.226;2023-02-24T11:01:29;59.97;;;28.73;;
19863;SDS011;10094;48.820;9.226;2023-02-24T11:08:24;62.60;;;28.60;;
19863;SDS011;10094;48.820;9.226;2023-02-24T11:15:19;60.35;;;28.70;;
19863;SDS011;10094;48.820;9.226;2023-02-24T11:22:29;49.50;;;27.10;;
19863;SDS011;10094;48.820;9.226;2023-02-24T11:43:22;48.72;;;25.10;;
19863;SDS011;10094;48.820;9.226;2023-02-24T11:50:25;55.28;;;26.98;;
19863;SDS011;10094;48.820;9.226;2023-02-24T11:57:35;53.58;;;26.15;;
19863;SDS011;10094;48.820;9.226;2023-02-24T12:11:29;53.17;;;25.27;;
19863;SDS011;10094;48.820;9.226;2023-02-24T12:18:18;57.63;;;27.55;;
19863;SDS011;10094;48.820;9.226;2023-02-24T12:25:17;60.70;;;28.48;;
19863;SDS011;10094;48.820;9.226;2023-02-24T12:46:00;43.42;;;23.75;;
19863;SDS011;10094;48.820;9.226;2023-02-24T12:52:51;44.47;;;23.80;;
19863;SDS011;10094;48.820;9.226;2023-02-24T12:59:47;46.58;;;23.50;;
19863;SDS011;10094;48.820;9.226;2023-02-24T13:06:46;40.83;;;21.88;;
19863;SDS011;10094;48.820;9.226;2023-02-24T13:13:54;44.70;;;22.95;;
19863;SDS011;10094;48.820;9.226;2023-02-24T13:20:44;46.92;;;22.42;;
19863;SDS011;10094;48.820;9.226;2023-02-24T13:27:27;45.83;;;22.83;;
19863;SDS011;10094;48.820;9.226;2023-02-24T13:34:32;52.03;;;26.20;;
19863;SDS011;10094;48.820;9.226;2023-02-24T14:02:29;44.45;;;20.77;;
19863;SDS011;10094;48.820;9.226;2023-02-24T14:09:17;45.40;;;22.35;;
19863;SDS011;10094;48.820;9.226;2023-02-24T14:16:06;43.85;;;19.65;;
19863;SDS011;10094;48.820;9.226;2023-02-24T14:22:55;33.95;;;16.65;;
19863;SDS011;10094;48.820;9.226;2023-02-24T14:29:39;37.53;;;20.58;;
19863;SDS011;10094;48.820;9.226;2023-02-24T14:36:26;33.03;;;18.10;;
19863;SDS011;10094;48.820;9.226;2023-02-24T14:43:13;41.75;;;18.08;;
19863;SDS011;10094;48.820;9.226;2023-02-24T14:49:56;31.77;;;17.92;;
19863;SDS011;10094;48.820;9.226;2023-02-24T14:56:40;31.58;;;18.63;;
19863;SDS011;10094;48.820;9.226;2023-02-24T15:03:27;34.42;;;17.98;;
19863;SDS011;10094;48.820;9.226;2023-02-24T15:10:21;33.55;;;16.95;;
19863;SDS011;10094;48.820;9.226;2023-02-24T15:17:09;33.22;;;17.10;;
19863;SDS011;10094;48.820;9.226;2023-02-24T15:23:58;24.70;;;15.07;;
19863;SDS011;10094;48.820;9.226;2023-02-24T15:30:57;26.23;;;14.65;;
19863;SDS011;10094;48.820;9.226;2023-02-24T15:38:00;23.17;;;14.02;;
19863;SDS011;10094;48.820;9.226;2023-02-24T15:44:56;26.58;;;13.50;;
19863;SDS011;10094;48.820;9.226;2023-02-24T15:51:40;20.08;;;12.88;;
19863;SDS011;10094;48.820;9.226;2023-02-24T15:58:28;27.73;;;13.98;;
19863;SDS011;10094;48.820;9.226;2023-02-24T16:05:12;23.13;;;13.35;;
19863;SDS011;10094;48.820;9.226;2023-02-24T16:11:55;28.02;;;13.10;;
19863;SDS011;10094;48.820;9.226;2023-02-24T16:18:37;25.50;;;14.25;;
19863;SDS011;10094;48.820;9.226;2023-02-24T16:25:20;23.75;;;13.10;;
19863;SDS011;10094;48.820;9.226;2023-02-24T16:32:02;21.63;;;13.35;;
19863;SDS011;10094;48.820;9.226;2023-02-24T16:38:48;24.67;;;13.45;;
19863;SDS011;10094;48.820;9.226;2023-02-24T16:45:33;22.98;;;14.85;;
19863;SDS011;10094;48.820;9.226;2023-02-24T16:52:17;22.08;;;14.80;;
19863;SDS011;10094;48.820;9.226;2023-02-24T16:59:00;25.02;;;14.30;;
19863;SDS011;10094;48.820;9.226;2023-02-24T17:05:43;23.52;;;12.93;;
19863;SDS011;10094;48.820;9.226;2023-02-24T17:12:25;22.30;;;13.40;;
19863;SDS011;10094;48.820;9.226;2023-02-24T17:19:08;22.92;;;12.98;;
19863;SDS011;10094;48.820;9.226;2023-02-24T17:25:51;21.73;;;13.40;;
19863;SDS011;10094;48.820;9.226;2023-02-24T17:32:35;21.45;;;12.82;;
19863;SDS011;10094;48.820;9.226;2023-02-24T17:39:17;26.80;;;12.43;;
19863;SDS011;10094;48.820;9.226;2023-02-24T17:46:00;17.00;;;11.27;;
19863;SDS011;10094;48.820;9.226;2023-02-24T17:52:46;19.00;;;10.05;;
19863;SDS011;10094;48.820;9.226;2023-02-24T17:59:29;16.20;;;9.07;;
19863;SDS011;10094;48.820;9.226;2023-02-24T18:06:11;13.63;;;8.40;;
19863;SDS011;10094;48.820;9.226;2023-02-24T18:12:53;12.98;;;8.25;;
19863;SDS011;10094;48.820;9.226;2023-02-24T18:19:36;10.60;;;7.07;;
19863;SDS011;10094;48.820;9.226;2023-02-24T18:26:18;14.95;;;7.25;;
19863;SDS011;10094;48.820;9.226;2023-02-24T18:33:04;10.43;;;7.78;;
19863;SDS011;10094;48.820;9.226;2023-02-24T18:39:47;10.77;;;7.07;;
19863;SDS011;10094;48.820;9.226;2023-02-24T18:46:29;17.27;;;8.50;;
19863;SDS011;10094;48.820;9.226;2023-02-24T18:53:12;13.40;;;8.75;;
19863;SDS011;10094;48.820;9.226;2023-02-24T18:59:54;17.08;;;9.43;;
19863;SDS011;10094;48.820;9.226;2023-02-24T19:06:36;20.27;;;12.40;;
19863;SDS011;10094;48.820;9.226;2023-02-24T19:13:19;19.40;;;10.70;;
19863;SDS011;10094;48.820;9.226;2023-02-24T19:20:01;20.90;;;10.80;;
19863;SDS011;10094;48.820;9.226;2023-02-24T19:26:43;20.52;;;11.45;;
19863;SDS011;10094;48.820;9.226;2023-02-24T19:33:28;20.48;;;11.40;;
19863;SDS011;10094;48.820;9.226;2023-02-24T19:40:10;21.15;;;12.35;;
19863;SDS011;10094;48.820;9.226;2023-02-24T19:46:53;24.13;;;13.23;;
19863;SDS011;10094;48.820;9.226;2023-02-24T19:53:35;20.20;;;13.18;;
19863;SDS011;10094;48.820;9.226;2023-02-24T20:00:18;24.95;;;14.55;;
19863;SDS011;10094;48.820;9.226;2023-02-24T20:07:01;23.35;;;14.82;;
19863;SDS011;10094;48.820;9.226;2023-02-24T20:13:44;25.73;;;14.60;;
19863;SDS011;10094;48.820;9.226;2023-02-24T20:20:27;23.55;;;13.25;;
19863;SDS011;10094;48.820;9.226;2023-02-24T20:27:11;23.25;;;14.05;;
19863;SDS011;10094;48.820;9.226;2023-02-24T20:33:53;23.77;;;15.23;;
19863;SDS011;10094;48.820;9.226;2023-02-24T20:40:37;25.00;;;15.05;;
19863;SDS011;10094;48.820;9.226;2023-02-24T20:47:20;23.88;;;15.35;;
19863;SDS011;10094;48.820;9.226;2023-02-24T20:54:03;26.65;;;15.07;;
19863;SDS011;10094;48.820;9.226;2023-02-24T21:00:46;25.45;;;14.68;;
19863;SDS011;10094;48.820;9.226;2023-02-24T21:07:29;26.85;;;16.27;;
19863;SDS011;10094;48.820;9.226;2023-02-24T21:14:13;8.60;;;5.57;;
19863;SDS011;10094;48.820;9.226;2023-02-24T21:20:56;9.75;;;4.20;;
19863;SDS011;10094;48.820;9.226;2023-02-24T21:27:39;4.28;;;2.47;;
19863;SDS011;10094;48.820;9.226;2023-02-24T21:34:21;3.90;;;2.65;;
19863;SDS011;10094;48.820;9.226;2023-02-24T21:41:04;3.58;;;2.42;;
19863;SDS011;10094;48.820;9.226;2023-02-24T21:47:54;3.50;;;2.40;;
19863;SDS011;10094;48.820;9.226;2023-02-24T21:54:36;4.65;;;2.95;;
19863;SDS011;10094;48.820;9.226;2023-02-24T22:01:20;7.55;;;3.45;;
19863;SDS011;10094;48.820;9.226;2023-02-24T22:08:05;4.97;;;3.38;;
19863;SDS011;10094;48.820;9.226;2023-02-24T22:14:47;9.25;;;4.50;;
19863;SDS011;10094;48.820;9.226;2023-02-24T22:21:30;14.88;;;10.43;;
19863;SDS011;10094;48.820;9.226;2023-02-24T22:28:13;7.63;;;4.40;;
19863;SDS011;10094;48.820;9.226;2023-02-24T22:34:55;9.95;;;4.60;;
19863;SDS011;10094;48.820;9.226;2023-02-24T22:41:37;6.43;;;4.28;;
19863;SDS011;10094;48.820;9.226;2023-02-24T22:48:20;7.35;;;3.90;;
19863;SDS011;10094;48.820;9.226;2023-02-24T22:55:02;6.97;;;5.30;;
19863;SDS011;10094;48.820;9.226;2023-02-24T23:01:45;10.27;;;4.80;;
19863;SDS011;10094;48.820;9.226;2023-02-24T23:08:28;11.75;;;7.07;;
19863;SDS011;10094;48.820;9.226;2023-02-24T23:15:11;8.15;;;4.85;;
19863;SDS011;10094;48.820;9.226;2023-02-24T23:21:54;4.75;;;3.95;;
19863;SDS011;10094;48.820;9.226;2023-02-24T23:28:37;6.05;;;4.15;;
19863;SDS011;10094;48.820;9.226;2023-02-24T23:35:20;6.28;;;3.97;;
19863;SDS011;10094;48.820;9.226;2023-02-24T23:42:03;9.10;;;4.65;;
19863;SDS011;10094;48.820;9.226;2023-02-24T23:48:45;9.13;;;4.25;;
19863;SDS011;10094;48.820;9.226;2023-02-24T23:55:32;11.57;;;4.90;;
